sensor_id;sensor_type;location;lat;lon;timestamp;P1;durP1;ratioP1;P2;durP2;ratioP2
19030;SDS011;9648;51.130;13.978;2023-06-19T00:00:07;11.67;;;10.47;;
19030;SDS011;9648;51.130;13.978;2023-06-19T00:02:38;11.38;;;10.10;;
19030;SDS011;9648;51.130;13.978;2023-06-19T00:05:06;11.60;;;10.35;;
19030;SDS011;9648;51.130;13.978;2023-06-19T00:07:33;13.73;;;11.10;;
19030;SDS011;9648;51.130;13.978;2023-06-19T00:10:00;12.55;;;10.95;;
19030;SDS011;9648;51.130;13.978;2023-06-19T00:12:28;11.60;;;10.32;;
19030;SDS011;9648;51.130;13.978;2023-06-19T00:14:55;11.32;;;10.13;;
19030;SDS011;9648;51.130;13.978;2023-06-19T00:17:22;15.30;;;11.20;;
19030;SDS011;9648;51.130;13.978;2023-06-19T00:19:51;11.97;;;10.50;;
19030;SDS011;9648;51.130;13.978;2023-06-19T00:22:19;14.25;;;11.15;;
19030;SDS011;9648;51.130;13.978;2023-06-19T00:24:46;14.20;;;11.30;;
19030;SDS011;9648;51.130;13.978;2023-06-19T00:27:13;12.32;;;11.00;;
19030;SDS011;9648;51.130;13.978;2023-06-19T00:29:42;12.48;;;10.98;;
19030;SDS011;9648;51.130;13.978;2023-06-19T00:32:09;12.82;;;10.98;;
19030;SDS011;9648;51.130;13.978;2023-06-19T00:34:35;13.37;;;11.00;;
19030;SDS011;9648;51.130;13.978;2023-06-19T00:37:03;10.60;;;9.50;;
19030;SDS011;9648;51.130;13.978;2023-06-19T00:39:31;11.30;;;10.10;;
19030;SDS011;9648;51.130;13.978;2023-06-19T00:41:58;11.95;;;10.02;;
19030;SDS011;9648;51.130;13.978;2023-06-19T00:44:25;11.10;;;9.88;;
19030;SDS011;9648;51.130;13.978;2023-06-19T00:46:55;12.13;;;10.82;;
19030;SDS011;9648;51.130;13.978;2023-06-19T00:49:24;11.50;;;10.30;;
19030;SDS011;9648;51.130;13.978;2023-06-19T00:51:52;11.20;;;10.00;;
19030;SDS011;9648;51.130;13.978;2023-06-19T00:54:18;12.17;;;10.53;;
19030;SDS011;9648;51.130;13.978;2023-06-19T00:56:46;12.43;;;10.75;;
19030;SDS011;9648;51.130;13.978;2023-06-19T00:59:14;11.85;;;10.32;;
19030;SDS011;9648;51.130;13.978;2023-06-19T01:01:42;15.30;;;11.85;;
19030;SDS011;9648;51.130;13.978;2023-06-19T01:04:11;11.60;;;10.40;;
19030;SDS011;9648;51.130;13.978;2023-06-19T01:06:40;12.47;;;11.07;;
19030;SDS011;9648;51.130;13.978;2023-06-19T01:09:10;12.93;;;10.85;;
19030;SDS011;9648;51.130;13.978;2023-06-19T01:11:41;12.07;;;10.70;;
19030;SDS011;9648;51.130;13.978;2023-06-19T01:14:18;11.65;;;10.45;;
19030;SDS011;9648;51.130;13.978;2023-06-19T01:16:47;11.88;;;10.55;;
19030;SDS011;9648;51.130;13.978;2023-06-19T01:19:17;12.48;;;10.95;;
19030;SDS011;9648;51.130;13.978;2023-06-19T01:21:46;12.15;;;10.40;;
19030;SDS011;9648;51.130;13.978;2023-06-19T01:24:14;12.27;;;10.05;;
19030;SDS011;9648;51.130;13.978;2023-06-19T01:26:41;12.57;;;10.77;;
19030;SDS011;9648;51.130;13.978;2023-06-19T01:29:10;11.82;;;10.07;;
19030;SDS011;9648;51.130;13.978;2023-06-19T01:31:41;12.45;;;9.75;;
19030;SDS011;9648;51.130;13.978;2023-06-19T01:34:11;11.15;;;9.93;;
19030;SDS011;9648;51.130;13.978;2023-06-19T01:36:40;11.90;;;10.63;;
19030;SDS011;9648;51.130;13.978;2023-06-19T01:39:07;11.90;;;10.18;;
19030;SDS011;9648;51.130;13.978;2023-06-19T01:41:37;11.68;;;10.23;;
19030;SDS011;9648;51.130;13.978;2023-06-19T01:44:06;11.90;;;10.07;;
19030;SDS011;9648;51.130;13.978;2023-06-19T01:46:34;12.50;;;10.35;;
19030;SDS011;9648;51.130;13.978;2023-06-19T01:49:05;13.32;;;11.13;;
19030;SDS011;9648;51.130;13.978;2023-06-19T01:51:32;11.20;;;10.03;;
19030;SDS011;9648;51.130;13.978;2023-06-19T01:53:59;12.40;;;10.10;;
19030;SDS011;9648;51.130;13.978;2023-06-19T01:56:26;11.73;;;9.40;;
19030;SDS011;9648;51.130;13.978;2023-06-19T01:58:54;11.07;;;9.82;;
19030;SDS011;9648;51.130;13.978;2023-06-19T02:01:21;11.50;;;9.15;;
19030;SDS011;9648;51.130;13.978;2023-06-19T02:03:48;12.05;;;10.35;;
19030;SDS011;9648;51.130;13.978;2023-06-19T02:06:14;12.25;;;10.50;;
19030;SDS011;9648;51.130;13.978;2023-06-19T02:08:41;11.23;;;9.75;;
19030;SDS011;9648;51.130;13.978;2023-06-19T02:11:08;11.35;;;10.25;;
19030;SDS011;9648;51.130;13.978;2023-06-19T02:13:34;11.53;;;10.30;;
19030;SDS011;9648;51.130;13.978;2023-06-19T02:16:03;12.77;;;11.18;;
19030;SDS011;9648;51.130;13.978;2023-06-19T02:18:30;13.48;;;10.30;;
19030;SDS011;9648;51.130;13.978;2023-06-19T02:20:57;10.57;;;9.48;;
19030;SDS011;9648;51.130;13.978;2023-06-19T02:23:24;11.17;;;9.80;;
19030;SDS011;9648;51.130;13.978;2023-06-19T02:25:51;12.15;;;10.15;;
19030;SDS011;9648;51.130;13.978;2023-06-19T02:28:18;12.52;;;10.32;;
19030;SDS011;9648;51.130;13.978;2023-06-19T02:30:45;13.33;;;10.73;;
19030;SDS011;9648;51.130;13.978;2023-06-19T02:33:13;12.32;;;10.27;;
19030;SDS011;9648;51.130;13.978;2023-06-19T02:35:40;10.45;;;9.27;;
19030;SDS011;9648;51.130;13.978;2023-06-19T02:38:09;12.13;;;10.27;;
19030;SDS011;9648;51.130;13.978;2023-06-19T02:40:37;11.43;;;10.02;;
19030;SDS011;9648;51.130;13.978;2023-06-19T02:43:04;11.18;;;9.85;;
19030;SDS011;9648;51.130;13.978;2023-06-19T02:45:31;10.40;;;9.30;;
19030;SDS011;9648;51.130;13.978;2023-06-19T02:47:57;11.65;;;9.48;;
19030;SDS011;9648;51.130;13.978;2023-06-19T02:50:26;10.30;;;9.20;;
19030;SDS011;9648;51.130;13.978;2023-06-19T02:52:53;10.73;;;9.63;;
19030;SDS011;9648;51.130;13.978;2023-06-19T02:55:20;11.43;;;9.80;;
19030;SDS011;9648;51.130;13.978;2023-06-19T02:57:47;11.35;;;9.95;;
19030;SDS011;9648;51.130;13.978;2023-06-19T03:00:14;10.75;;;9.55;;
19030;SDS011;9648;51.130;13.978;2023-06-19T03:02:41;11.38;;;10.00;;
19030;SDS011;9648;51.130;13.978;2023-06-19T03:05:09;12.52;;;10.57;;
19030;SDS011;9648;51.130;13.978;2023-06-19T03:07:37;11.60;;;10.13;;
19030;SDS011;9648;51.130;13.978;2023-06-19T03:10:05;10.75;;;9.65;;
19030;SDS011;9648;51.130;13.978;2023-06-19T03:12:32;11.38;;;9.73;;
19030;SDS011;9648;51.130;13.978;2023-06-19T03:14:59;12.15;;;10.07;;
19030;SDS011;9648;51.130;13.978;2023-06-19T03:17:26;11.52;;;9.13;;
19030;SDS011;9648;51.130;13.978;2023-06-19T03:19:53;11.13;;;9.33;;
19030;SDS011;9648;51.130;13.978;2023-06-19T03:22:20;10.85;;;9.32;;
19030;SDS011;9648;51.130;13.978;2023-06-19T03:24:48;11.20;;;9.45;;
19030;SDS011;9648;51.130;13.978;2023-06-19T03:27:15;10.50;;;9.00;;
19030;SDS011;9648;51.130;13.978;2023-06-19T03:29:42;9.30;;;8.07;;
19030;SDS011;9648;51.130;13.978;2023-06-19T03:32:09;9.23;;;8.32;;
19030;SDS011;9648;51.130;13.978;2023-06-19T03:34:36;10.32;;;9.20;;
19030;SDS011;9648;51.130;13.978;2023-06-19T03:37:05;10.10;;;8.57;;
19030;SDS011;9648;51.130;13.978;2023-06-19T03:39:32;10.10;;;8.98;;
19030;SDS011;9648;51.130;13.978;2023-06-19T03:42:00;11.80;;;9.10;;
19030;SDS011;9648;51.130;13.978;2023-06-19T03:44:27;12.13;;;9.20;;
19030;SDS011;9648;51.130;13.978;2023-06-19T03:46:54;10.55;;;9.35;;
19030;SDS011;9648;51.130;13.978;2023-06-19T03:49:22;11.40;;;9.93;;
19030;SDS011;9648;51.130;13.978;2023-06-19T03:51:48;10.63;;;9.00;;
19030;SDS011;9648;51.130;13.978;2023-06-19T03:54:15;12.50;;;9.40;;
19030;SDS011;9648;51.130;13.978;2023-06-19T03:56:42;9.73;;;8.73;;
19030;SDS011;9648;51.130;13.978;2023-06-19T03:59:10;11.25;;;9.27;;
19030;SDS011;9648;51.130;13.978;2023-06-19T04:01:37;10.25;;;8.77;;
19030;SDS011;9648;51.130;13.978;2023-06-19T04:04:04;11.52;;;9.70;;
19030;SDS011;9648;51.130;13.978;2023-06-19T04:06:31;9.95;;;8.68;;
19030;SDS011;9648;51.130;13.978;2023-06-19T04:08:57;9.23;;;8.20;;
19030;SDS011;9648;51.130;13.978;2023-06-19T04:11:24;9.80;;;8.80;;
19030;SDS011;9648;51.130;13.978;2023-06-19T04:13:51;10.57;;;9.10;;
19030;SDS011;9648;51.130;13.978;2023-06-19T04:16:19;10.50;;;8.70;;
19030;SDS011;9648;51.130;13.978;2023-06-19T04:18:46;10.75;;;8.98;;
19030;SDS011;9648;51.130;13.978;2023-06-19T04:21:13;10.13;;;8.32;;
19030;SDS011;9648;51.130;13.978;2023-06-19T04:23:40;10.50;;;8.43;;
19030;SDS011;9648;51.130;13.978;2023-06-19T04:26:07;12.75;;;9.23;;
19030;SDS011;9648;51.130;13.978;2023-06-19T04:28:34;11.60;;;9.60;;
19030;SDS011;9648;51.130;13.978;2023-06-19T04:31:01;10.38;;;9.07;;
19030;SDS011;9648;51.130;13.978;2023-06-19T04:33:29;10.40;;;8.90;;
19030;SDS011;9648;51.130;13.978;2023-06-19T04:35:56;10.10;;;8.95;;
19030;SDS011;9648;51.130;13.978;2023-06-19T04:38:23;10.73;;;9.43;;
19030;SDS011;9648;51.130;13.978;2023-06-19T04:40:50;9.93;;;8.82;;
19030;SDS011;9648;51.130;13.978;2023-06-19T04:43:17;10.85;;;8.95;;
19030;SDS011;9648;51.130;13.978;2023-06-19T04:45:44;10.33;;;8.97;;
19030;SDS011;9648;51.130;13.978;2023-06-19T04:48:11;10.52;;;8.60;;
19030;SDS011;9648;51.130;13.978;2023-06-19T04:50:39;10.45;;;8.88;;
19030;SDS011;9648;51.130;13.978;2023-06-19T04:53:06;10.05;;;8.95;;
19030;SDS011;9648;51.130;13.978;2023-06-19T04:55:33;9.93;;;8.60;;
19030;SDS011;9648;51.130;13.978;2023-06-19T04:58:00;11.52;;;8.95;;
19030;SDS011;9648;51.130;13.978;2023-06-19T05:00:27;10.93;;;8.68;;
19030;SDS011;9648;51.130;13.978;2023-06-19T05:02:53;10.20;;;8.80;;
19030;SDS011;9648;51.130;13.978;2023-06-19T05:05:24;9.95;;;8.18;;
19030;SDS011;9648;51.130;13.978;2023-06-19T05:07:53;9.77;;;8.43;;
19030;SDS011;9648;51.130;13.978;2023-06-19T05:10:20;10.32;;;8.23;;
19030;SDS011;9648;51.130;13.978;2023-06-19T05:12:47;10.38;;;8.15;;
19030;SDS011;9648;51.130;13.978;2023-06-19T05:15:14;10.32;;;8.38;;
19030;SDS011;9648;51.130;13.978;2023-06-19T05:17:40;8.93;;;7.80;;
19030;SDS011;9648;51.130;13.978;2023-06-19T05:20:08;10.77;;;8.07;;
19030;SDS011;9648;51.130;13.978;2023-06-19T05:22:36;9.13;;;7.65;;
19030;SDS011;9648;51.130;13.978;2023-06-19T05:25:05;7.97;;;7.03;;
19030;SDS011;9648;51.130;13.978;2023-06-19T05:27:33;9.80;;;8.05;;
19030;SDS011;9648;51.130;13.978;2023-06-19T05:29:59;10.33;;;8.73;;
19030;SDS011;9648;51.130;13.978;2023-06-19T05:32:26;9.35;;;8.00;;
19030;SDS011;9648;51.130;13.978;2023-06-19T05:34:53;10.15;;;7.78;;
19030;SDS011;9648;51.130;13.978;2023-06-19T05:37:20;11.32;;;8.25;;
19030;SDS011;9648;51.130;13.978;2023-06-19T05:39:48;8.38;;;7.47;;
19030;SDS011;9648;51.130;13.978;2023-06-19T05:42:16;9.40;;;7.85;;
19030;SDS011;9648;51.130;13.978;2023-06-19T05:44:43;10.32;;;8.13;;
19030;SDS011;9648;51.130;13.978;2023-06-19T05:47:10;9.05;;;7.90;;
19030;SDS011;9648;51.130;13.978;2023-06-19T05:49:37;10.05;;;8.10;;
19030;SDS011;9648;51.130;13.978;2023-06-19T05:52:06;9.33;;;7.20;;
19030;SDS011;9648;51.130;13.978;2023-06-19T05:54:34;8.65;;;7.72;;
19030;SDS011;9648;51.130;13.978;2023-06-19T05:57:01;10.15;;;8.45;;
19030;SDS011;9648;51.130;13.978;2023-06-19T05:59:29;8.90;;;7.70;;
19030;SDS011;9648;51.130;13.978;2023-06-19T06:01:56;9.10;;;6.88;;
19030;SDS011;9648;51.130;13.978;2023-06-19T06:04:23;8.52;;;7.50;;
19030;SDS011;9648;51.130;13.978;2023-06-19T06:06:50;8.60;;;7.68;;
19030;SDS011;9648;51.130;13.978;2023-06-19T06:09:17;8.48;;;7.55;;
19030;SDS011;9648;51.130;13.978;2023-06-19T06:11:44;10.07;;;7.40;;
19030;SDS011;9648;51.130;13.978;2023-06-19T06:14:11;10.32;;;7.68;;
19030;SDS011;9648;51.130;13.978;2023-06-19T06:16:39;8.95;;;7.30;;
19030;SDS011;9648;51.130;13.978;2023-06-19T06:19:06;8.85;;;7.57;;
19030;SDS011;9648;51.130;13.978;2023-06-19T06:21:33;10.43;;;7.43;;
19030;SDS011;9648;51.130;13.978;2023-06-19T06:24:00;8.73;;;7.57;;
19030;SDS011;9648;51.130;13.978;2023-06-19T06:26:27;8.90;;;7.95;;
19030;SDS011;9648;51.130;13.978;2023-06-19T06:28:54;8.85;;;7.28;;
19030;SDS011;9648;51.130;13.978;2023-06-19T06:31:21;8.32;;;6.80;;
19030;SDS011;9648;51.130;13.978;2023-06-19T06:33:50;9.73;;;7.43;;
19030;SDS011;9648;51.130;13.978;2023-06-19T06:36:16;9.38;;;7.30;;
19030;SDS011;9648;51.130;13.978;2023-06-19T06:38:43;8.20;;;7.20;;
19030;SDS011;9648;51.130;13.978;2023-06-19T06:41:10;7.38;;;6.50;;
19030;SDS011;9648;51.130;13.978;2023-06-19T06:43:37;8.00;;;7.20;;
19030;SDS011;9648;51.130;13.978;2023-06-19T06:46:05;8.90;;;6.83;;
19030;SDS011;9648;51.130;13.978;2023-06-19T06:48:32;8.32;;;6.93;;
19030;SDS011;9648;51.130;13.978;2023-06-19T06:51:00;8.37;;;6.73;;
19030;SDS011;9648;51.130;13.978;2023-06-19T06:53:27;9.95;;;6.78;;
19030;SDS011;9648;51.130;13.978;2023-06-19T06:55:57;7.80;;;6.63;;
19030;SDS011;9648;51.130;13.978;2023-06-19T06:58:24;7.93;;;6.63;;
19030;SDS011;9648;51.130;13.978;2023-06-19T07:00:51;9.30;;;7.53;;
19030;SDS011;9648;51.130;13.978;2023-06-19T07:03:18;7.95;;;6.93;;
19030;SDS011;9648;51.130;13.978;2023-06-19T07:05:47;7.88;;;7.07;;
19030;SDS011;9648;51.130;13.978;2023-06-19T07:08:15;9.48;;;7.28;;
19030;SDS011;9648;51.130;13.978;2023-06-19T07:10:42;7.90;;;6.63;;
19030;SDS011;9648;51.130;13.978;2023-06-19T07:13:09;10.43;;;7.40;;
19030;SDS011;9648;51.130;13.978;2023-06-19T07:15:36;8.90;;;7.13;;
19030;SDS011;9648;51.130;13.978;2023-06-19T07:18:02;8.02;;;5.90;;
19030;SDS011;9648;51.130;13.978;2023-06-19T07:20:29;8.35;;;6.63;;
19030;SDS011;9648;51.130;13.978;2023-06-19T07:22:56;7.55;;;6.70;;
19030;SDS011;9648;51.130;13.978;2023-06-19T07:25:25;7.70;;;6.85;;
19030;SDS011;9648;51.130;13.978;2023-06-19T07:27:52;10.07;;;6.53;;
19030;SDS011;9648;51.130;13.978;2023-06-19T07:30:19;7.93;;;6.70;;
19030;SDS011;9648;51.130;13.978;2023-06-19T07:32:46;9.83;;;6.53;;
19030;SDS011;9648;51.130;13.978;2023-06-19T07:35:13;7.45;;;6.43;;
19030;SDS011;9648;51.130;13.978;2023-06-19T07:37:39;9.35;;;6.30;;
19030;SDS011;9648;51.130;13.978;2023-06-19T07:40:07;9.00;;;6.63;;
19030;SDS011;9648;51.130;13.978;2023-06-19T07:42:36;7.60;;;6.23;;
19030;SDS011;9648;51.130;13.978;2023-06-19T07:45:03;7.47;;;6.32;;
19030;SDS011;9648;51.130;13.978;2023-06-19T07:47:31;7.10;;;6.27;;
19030;SDS011;9648;51.130;13.978;2023-06-19T07:49:57;9.80;;;6.40;;
19030;SDS011;9648;51.130;13.978;2023-06-19T07:52:24;8.55;;;6.43;;
19030;SDS011;9648;51.130;13.978;2023-06-19T07:54:51;6.88;;;5.88;;
19030;SDS011;9648;51.130;13.978;2023-06-19T07:57:19;8.43;;;6.15;;
19030;SDS011;9648;51.130;13.978;2023-06-19T07:59:47;7.38;;;6.57;;
19030;SDS011;9648;51.130;13.978;2023-06-19T08:02:16;7.88;;;6.20;;
19030;SDS011;9648;51.130;13.978;2023-06-19T08:04:44;7.28;;;6.25;;
19030;SDS011;9648;51.130;13.978;2023-06-19T08:07:11;8.02;;;6.18;;
19030;SDS011;9648;51.130;13.978;2023-06-19T08:09:38;7.83;;;6.50;;
19030;SDS011;9648;51.130;13.978;2023-06-19T08:12:05;8.68;;;6.20;;
19030;SDS011;9648;51.130;13.978;2023-06-19T08:14:32;6.97;;;6.07;;
19030;SDS011;9648;51.130;13.978;2023-06-19T08:17:00;6.88;;;6.18;;
19030;SDS011;9648;51.130;13.978;2023-06-19T08:19:27;8.32;;;6.32;;
19030;SDS011;9648;51.130;13.978;2023-06-19T08:21:54;7.40;;;5.95;;
19030;SDS011;9648;51.130;13.978;2023-06-19T08:24:21;7.00;;;6.05;;
19030;SDS011;9648;51.130;13.978;2023-06-19T08:26:48;7.32;;;5.88;;
19030;SDS011;9648;51.130;13.978;2023-06-19T08:29:17;8.88;;;6.13;;
19030;SDS011;9648;51.130;13.978;2023-06-19T08:31:44;9.00;;;6.43;;
19030;SDS011;9648;51.130;13.978;2023-06-19T08:34:12;7.53;;;6.20;;
19030;SDS011;9648;51.130;13.978;2023-06-19T08:36:39;6.60;;;5.90;;
19030;SDS011;9648;51.130;13.978;2023-06-19T08:39:06;7.72;;;6.38;;
19030;SDS011;9648;51.130;13.978;2023-06-19T08:41:33;7.38;;;6.03;;
19030;SDS011;9648;51.130;13.978;2023-06-19T08:44:01;7.63;;;6.10;;
19030;SDS011;9648;51.130;13.978;2023-06-19T08:46:29;7.28;;;6.40;;
19030;SDS011;9648;51.130;13.978;2023-06-19T08:48:56;7.70;;;6.78;;
19030;SDS011;9648;51.130;13.978;2023-06-19T08:51:24;7.67;;;6.37;;
19030;SDS011;9648;51.130;13.978;2023-06-19T08:53:54;9.02;;;6.70;;
19030;SDS011;9648;51.130;13.978;2023-06-19T08:56:23;6.75;;;6.13;;
19030;SDS011;9648;51.130;13.978;2023-06-19T08:58:50;8.75;;;6.55;;
19030;SDS011;9648;51.130;13.978;2023-06-19T09:01:17;6.77;;;6.07;;
19030;SDS011;9648;51.130;13.978;2023-06-19T09:03:45;8.07;;;6.60;;
19030;SDS011;9648;51.130;13.978;2023-06-19T09:06:17;7.78;;;6.38;;
19030;SDS011;9648;51.130;13.978;2023-06-19T09:08:45;7.47;;;6.63;;
19030;SDS011;9648;51.130;13.978;2023-06-19T09:11:12;7.45;;;6.45;;
19030;SDS011;9648;51.130;13.978;2023-06-19T09:13:45;9.27;;;6.60;;
19030;SDS011;9648;51.130;13.978;2023-06-19T09:16:22;8.15;;;6.55;;
19030;SDS011;9648;51.130;13.978;2023-06-19T09:18:49;13.00;;;6.97;;
19030;SDS011;9648;51.130;13.978;2023-06-19T09:21:16;8.77;;;7.00;;
19030;SDS011;9648;51.130;13.978;2023-06-19T09:23:45;9.93;;;6.82;;
19030;SDS011;9648;51.130;13.978;2023-06-19T09:26:13;7.68;;;6.55;;
19030;SDS011;9648;51.130;13.978;2023-06-19T09:28:43;8.32;;;6.70;;
19030;SDS011;9648;51.130;13.978;2023-06-19T09:31:10;7.28;;;6.35;;
19030;SDS011;9648;51.130;13.978;2023-06-19T09:33:38;7.60;;;6.40;;
19030;SDS011;9648;51.130;13.978;2023-06-19T09:36:05;9.07;;;6.97;;
19030;SDS011;9648;51.130;13.978;2023-06-19T09:38:33;7.82;;;6.60;;
19030;SDS011;9648;51.130;13.978;2023-06-19T09:41:02;8.80;;;6.80;;
19030;SDS011;9648;51.130;13.978;2023-06-19T09:43:33;7.85;;;6.43;;
19030;SDS011;9648;51.130;13.978;2023-06-19T09:46:02;7.82;;;6.60;;
19030;SDS011;9648;51.130;13.978;2023-06-19T09:48:30;8.10;;;6.60;;
19030;SDS011;9648;51.130;13.978;2023-06-19T09:51:00;11.00;;;6.60;;
19030;SDS011;9648;51.130;13.978;2023-06-19T09:53:32;7.72;;;6.80;;
19030;SDS011;9648;51.130;13.978;2023-06-19T09:56:02;7.97;;;6.80;;
19030;SDS011;9648;51.130;13.978;2023-06-19T09:58:29;8.80;;;6.75;;
19030;SDS011;9648;51.130;13.978;2023-06-19T10:00:57;8.60;;;7.00;;
19030;SDS011;9648;51.130;13.978;2023-06-19T10:03:29;8.85;;;6.65;;
19030;SDS011;9648;51.130;13.978;2023-06-19T10:05:57;7.70;;;6.70;;
19030;SDS011;9648;51.130;13.978;2023-06-19T10:08:26;8.13;;;7.28;;
19030;SDS011;9648;51.130;13.978;2023-06-19T10:10:55;8.07;;;6.90;;
19030;SDS011;9648;51.130;13.978;2023-06-19T10:13:30;7.65;;;6.85;;
19030;SDS011;9648;51.130;13.978;2023-06-19T10:15:58;8.32;;;6.90;;
19030;SDS011;9648;51.130;13.978;2023-06-19T10:18:25;9.70;;;6.77;;
19030;SDS011;9648;51.130;13.978;2023-06-19T10:20:52;6.97;;;6.28;;
19030;SDS011;9648;51.130;13.978;2023-06-19T10:23:37;7.87;;;6.40;;
19030;SDS011;9648;51.130;13.978;2023-06-19T10:26:05;7.43;;;6.63;;
19030;SDS011;9648;51.130;13.978;2023-06-19T10:28:33;7.57;;;6.78;;
19030;SDS011;9648;51.130;13.978;2023-06-19T10:31:00;8.75;;;6.53;;
19030;SDS011;9648;51.130;13.978;2023-06-19T10:33:29;7.03;;;6.32;;
19030;SDS011;9648;51.130;13.978;2023-06-19T10:35:57;8.10;;;7.00;;
19030;SDS011;9648;51.130;13.978;2023-06-19T10:38:25;8.43;;;7.05;;
19030;SDS011;9648;51.130;13.978;2023-06-19T10:40:53;7.50;;;6.80;;
19030;SDS011;9648;51.130;13.978;2023-06-19T10:43:21;9.37;;;6.63;;
19030;SDS011;9648;51.130;13.978;2023-06-19T10:45:50;7.20;;;6.50;;
19030;SDS011;9648;51.130;13.978;2023-06-19T10:48:20;7.65;;;6.72;;
19030;SDS011;9648;51.130;13.978;2023-06-19T10:50:49;7.55;;;6.68;;
19030;SDS011;9648;51.130;13.978;2023-06-19T10:53:23;7.22;;;6.53;;
19030;SDS011;9648;51.130;13.978;2023-06-19T10:55:55;7.53;;;6.68;;
19030;SDS011;9648;51.130;13.978;2023-06-19T10:58:23;8.33;;;6.53;;
19030;SDS011;9648;51.130;13.978;2023-06-19T11:00:50;7.70;;;6.35;;
19030;SDS011;9648;51.130;13.978;2023-06-19T11:03:17;7.82;;;6.30;;
19030;SDS011;9648;51.130;13.978;2023-06-19T11:05:44;9.63;;;6.63;;
19030;SDS011;9648;51.130;13.978;2023-06-19T11:08:17;7.37;;;6.47;;
19030;SDS011;9648;51.130;13.978;2023-06-19T11:10:45;7.57;;;6.50;;
19030;SDS011;9648;51.130;13.978;2023-06-19T11:13:15;6.88;;;6.13;;
19030;SDS011;9648;51.130;13.978;2023-06-19T11:15:42;9.13;;;6.47;;
19030;SDS011;9648;51.130;13.978;2023-06-19T11:18:10;8.23;;;6.60;;
19030;SDS011;9648;51.130;13.978;2023-06-19T11:20:43;7.82;;;6.72;;
19030;SDS011;9648;51.130;13.978;2023-06-19T11:23:11;6.95;;;6.22;;
19030;SDS011;9648;51.130;13.978;2023-06-19T11:25:39;7.95;;;6.75;;
19030;SDS011;9648;51.130;13.978;2023-06-19T11:28:10;7.55;;;6.60;;
19030;SDS011;9648;51.130;13.978;2023-06-19T11:30:39;7.63;;;6.82;;
19030;SDS011;9648;51.130;13.978;2023-06-19T11:33:14;6.93;;;6.22;;
19030;SDS011;9648;51.130;13.978;2023-06-19T11:35:46;7.03;;;6.05;;
19030;SDS011;9648;51.130;13.978;2023-06-19T11:38:16;7.65;;;6.63;;
19030;SDS011;9648;51.130;13.978;2023-06-19T11:40:43;9.40;;;6.80;;
19030;SDS011;9648;51.130;13.978;2023-06-19T11:43:10;8.75;;;6.53;;
19030;SDS011;9648;51.130;13.978;2023-06-19T11:45:47;9.40;;;6.68;;
19030;SDS011;9648;51.130;13.978;2023-06-19T11:48:21;6.95;;;5.93;;
19030;SDS011;9648;51.130;13.978;2023-06-19T11:50:49;7.50;;;6.15;;
19030;SDS011;9648;51.130;13.978;2023-06-19T11:53:16;7.95;;;6.30;;
19030;SDS011;9648;51.130;13.978;2023-06-19T11:55:42;8.35;;;6.45;;
19030;SDS011;9648;51.130;13.978;2023-06-19T11:58:09;8.37;;;6.60;;
19030;SDS011;9648;51.130;13.978;2023-06-19T12:00:36;6.72;;;6.00;;
19030;SDS011;9648;51.130;13.978;2023-06-19T12:03:04;6.80;;;6.10;;
19030;SDS011;9648;51.130;13.978;2023-06-19T12:05:31;6.85;;;5.68;;
19030;SDS011;9648;51.130;13.978;2023-06-19T12:07:58;7.88;;;6.38;;
19030;SDS011;9648;51.130;13.978;2023-06-19T12:10:27;7.90;;;6.50;;
19030;SDS011;9648;51.130;13.978;2023-06-19T12:12:53;6.45;;;5.72;;
19030;SDS011;9648;51.130;13.978;2023-06-19T12:15:20;7.28;;;5.75;;
19030;SDS011;9648;51.130;13.978;2023-06-19T12:17:47;7.10;;;5.53;;
19030;SDS011;9648;51.130;13.978;2023-06-19T12:20:15;7.43;;;5.95;;
19030;SDS011;9648;51.130;13.978;2023-06-19T12:22:42;6.10;;;5.50;;
19030;SDS011;9648;51.130;13.978;2023-06-19T12:25:09;7.20;;;5.87;;
19030;SDS011;9648;51.130;13.978;2023-06-19T12:27:35;7.53;;;6.20;;
19030;SDS011;9648;51.130;13.978;2023-06-19T12:30:03;8.43;;;5.70;;
19030;SDS011;9648;51.130;13.978;2023-06-19T12:32:30;6.30;;;5.70;;
19030;SDS011;9648;51.130;13.978;2023-06-19T12:34:57;8.57;;;5.70;;
19030;SDS011;9648;51.130;13.978;2023-06-19T12:37:25;7.23;;;5.60;;
19030;SDS011;9648;51.130;13.978;2023-06-19T12:39:51;6.93;;;5.50;;
19030;SDS011;9648;51.130;13.978;2023-06-19T12:42:18;6.45;;;5.68;;
19030;SDS011;9648;51.130;13.978;2023-06-19T12:44:45;6.30;;;5.47;;
19030;SDS011;9648;51.130;13.978;2023-06-19T12:47:12;6.60;;;5.55;;
19030;SDS011;9648;51.130;13.978;2023-06-19T12:49:40;6.60;;;5.63;;
19030;SDS011;9648;51.130;13.978;2023-06-19T12:52:07;7.45;;;5.75;;
19030;SDS011;9648;51.130;13.978;2023-06-19T12:54:35;6.57;;;5.53;;
19030;SDS011;9648;51.130;13.978;2023-06-19T12:57:02;6.40;;;5.60;;
19030;SDS011;9648;51.130;13.978;2023-06-19T12:59:29;6.20;;;5.60;;
19030;SDS011;9648;51.130;13.978;2023-06-19T13:01:57;6.47;;;5.80;;
19030;SDS011;9648;51.130;13.978;2023-06-19T13:04:24;6.38;;;5.60;;
19030;SDS011;9648;51.130;13.978;2023-06-19T13:06:51;6.07;;;5.40;;
19030;SDS011;9648;51.130;13.978;2023-06-19T13:09:17;6.70;;;5.68;;
19030;SDS011;9648;51.130;13.978;2023-06-19T13:11:45;7.78;;;5.25;;
19030;SDS011;9648;51.130;13.978;2023-06-19T13:14:12;6.40;;;5.15;;
19030;SDS011;9648;51.130;13.978;2023-06-19T13:16:39;7.55;;;5.38;;
19030;SDS011;9648;51.130;13.978;2023-06-19T13:19:05;6.32;;;5.47;;
19030;SDS011;9648;51.130;13.978;2023-06-19T13:21:32;6.40;;;5.50;;
19030;SDS011;9648;51.130;13.978;2023-06-19T13:24:00;7.50;;;5.90;;
19030;SDS011;9648;51.130;13.978;2023-06-19T13:26:27;7.30;;;5.67;;
19030;SDS011;9648;51.130;13.978;2023-06-19T13:28:55;8.23;;;6.20;;
19030;SDS011;9648;51.130;13.978;2023-06-19T13:31:23;6.95;;;5.82;;
19030;SDS011;9648;51.130;13.978;2023-06-19T13:33:50;6.78;;;5.80;;
19030;SDS011;9648;51.130;13.978;2023-06-19T13:36:17;6.60;;;6.00;;
19030;SDS011;9648;51.130;13.978;2023-06-19T13:38:45;10.25;;;6.15;;
19030;SDS011;9648;51.130;13.978;2023-06-19T13:41:12;7.03;;;6.00;;
19030;SDS011;9648;51.130;13.978;2023-06-19T13:43:38;7.93;;;6.15;;
19030;SDS011;9648;51.130;13.978;2023-06-19T13:46:06;7.55;;;6.40;;
19030;SDS011;9648;51.130;13.978;2023-06-19T13:48:33;7.35;;;6.50;;
19030;SDS011;9648;51.130;13.978;2023-06-19T13:51:00;7.85;;;6.35;;
19030;SDS011;9648;51.130;13.978;2023-06-19T13:53:27;7.85;;;6.30;;
19030;SDS011;9648;51.130;13.978;2023-06-19T13:55:55;8.23;;;6.50;;
19030;SDS011;9648;51.130;13.978;2023-06-19T13:58:21;7.45;;;6.53;;
19030;SDS011;9648;51.130;13.978;2023-06-19T14:00:48;7.15;;;6.43;;
19030;SDS011;9648;51.130;13.978;2023-06-19T14:03:16;7.30;;;6.32;;
19030;SDS011;9648;51.130;13.978;2023-06-19T14:05:43;7.43;;;6.47;;
19030;SDS011;9648;51.130;13.978;2023-06-19T14:08:09;7.68;;;6.82;;
19030;SDS011;9648;51.130;13.978;2023-06-19T14:10:36;9.85;;;7.18;;
19030;SDS011;9648;51.130;13.978;2023-06-19T14:13:03;8.00;;;6.80;;
19030;SDS011;9648;51.130;13.978;2023-06-19T14:15:29;9.18;;;6.90;;
19030;SDS011;9648;51.130;13.978;2023-06-19T14:17:56;8.32;;;6.70;;
19030;SDS011;9648;51.130;13.978;2023-06-19T14:20:24;10.07;;;7.20;;
19030;SDS011;9648;51.130;13.978;2023-06-19T14:22:51;9.00;;;7.43;;
19030;SDS011;9648;51.130;13.978;2023-06-19T14:25:18;8.48;;;7.35;;
19030;SDS011;9648;51.130;13.978;2023-06-19T14:27:44;9.95;;;7.43;;
19030;SDS011;9648;51.130;13.978;2023-06-19T14:30:11;9.32;;;7.88;;
19030;SDS011;9648;51.130;13.978;2023-06-19T14:32:38;8.95;;;7.97;;
19030;SDS011;9648;51.130;13.978;2023-06-19T14:35:06;9.90;;;7.60;;
19030;SDS011;9648;51.130;13.978;2023-06-19T14:37:34;9.40;;;7.10;;
19030;SDS011;9648;51.130;13.978;2023-06-19T14:40:01;9.60;;;7.80;;
19030;SDS011;9648;51.130;13.978;2023-06-19T14:42:29;8.38;;;7.43;;